sensor_id;sensor_type;location;lat;lon;timestamp;P1;durP1;ratioP1;P2;durP2;ratioP2
49544;SDS011;74870;42.636;23.302;2023-12-20T00:01:01;11.47;;;9.63;;
49544;SDS011;74870;42.636;23.302;2023-12-20T00:03:27;12.37;;;10.43;;
49544;SDS011;74870;42.636;23.302;2023-12-20T00:05:52;10.53;;;8.67;;
49544;SDS011;74870;42.636;23.302;2023-12-20T00:08:18;9.17;;;7.77;;
49544;SDS011;74870;42.636;23.302;2023-12-20T00:10:43;13.77;;;10.97;;
49544;SDS011;74870;42.636;23.302;2023-12-20T00:13:09;13.73;;;10.97;;
49544;SDS011;74870;42.636;23.302;2023-12-20T00:15:35;10.97;;;9.10;;
49544;SDS011;74870;42.636;23.302;2023-12-20T00:18:00;11.47;;;9.57;;
49544;SDS011;74870;42.636;23.302;2023-12-20T00:20:26;12.83;;;10.20;;
49544;SDS011;74870;42.636;23.302;2023-12-20T00:22:52;11.70;;;9.43;;
49544;SDS011;74870;42.636;23.302;2023-12-20T00:25:17;10.00;;;7.73;;
49544;SDS011;74870;42.636;23.302;2023-12-20T00:27:43;5.77;;;4.80;;
49544;SDS011;74870;42.636;23.302;2023-12-20T00:30:08;6.37;;;5.20;;
49544;SDS011;74870;42.636;23.302;2023-12-20T00:32:35;11.60;;;7.83;;
49544;SDS011;74870;42.636;23.302;2023-12-20T00:35:00;31.87;;;23.43;;
49544;SDS011;74870;42.636;23.302;2023-12-20T00:37:26;34.40;;;24.67;;
49544;SDS011;74870;42.636;23.302;2023-12-20T00:39:51;34.00;;;24.30;;
49544;SDS011;74870;42.636;23.302;2023-12-20T00:42:17;30.50;;;22.50;;
49544;SDS011;74870;42.636;23.302;2023-12-20T00:44:42;24.40;;;19.20;;
49544;SDS011;74870;42.636;23.302;2023-12-20T00:47:08;19.63;;;16.63;;
49544;SDS011;74870;42.636;23.302;2023-12-20T00:49:33;19.97;;;16.60;;
49544;SDS011;74870;42.636;23.302;2023-12-20T00:51:58;18.07;;;14.30;;
49544;SDS011;74870;42.636;23.302;2023-12-20T00:54:24;13.67;;;10.87;;
49544;SDS011;74870;42.636;23.302;2023-12-20T00:56:49;9.33;;;7.70;;
49544;SDS011;74870;42.636;23.302;2023-12-20T00:59:16;7.30;;;6.03;;
49544;SDS011;74870;42.636;23.302;2023-12-20T01:01:41;5.67;;;4.90;;
49544;SDS011;74870;42.636;23.302;2023-12-20T01:04:07;6.63;;;4.60;;
49544;SDS011;74870;42.636;23.302;2023-12-20T01:06:32;5.80;;;5.20;;
49544;SDS011;74870;42.636;23.302;2023-12-20T01:08:58;4.67;;;4.23;;
49544;SDS011;74870;42.636;23.302;2023-12-20T01:11:23;6.50;;;4.60;;
49544;SDS011;74870;42.636;23.302;2023-12-20T01:13:49;4.23;;;3.80;;
49544;SDS011;74870;42.636;23.302;2023-12-20T01:16:14;3.67;;;3.30;;
49544;SDS011;74870;42.636;23.302;2023-12-20T01:18:39;4.47;;;3.87;;
49544;SDS011;74870;42.636;23.302;2023-12-20T01:21:05;4.93;;;3.90;;
49544;SDS011;74870;42.636;23.302;2023-12-20T01:23:31;4.70;;;4.30;;
49544;SDS011;74870;42.636;23.302;2023-12-20T01:25:57;4.50;;;4.00;;
49544;SDS011;74870;42.636;23.302;2023-12-20T01:28:24;3.50;;;3.23;;
49544;SDS011;74870;42.636;23.302;2023-12-20T01:30:50;3.37;;;3.17;;
49544;SDS011;74870;42.636;23.302;2023-12-20T01:33:15;3.20;;;2.90;;
49544;SDS011;74870;42.636;23.302;2023-12-20T01:35:41;2.70;;;2.50;;
49544;SDS011;74870;42.636;23.302;2023-12-20T01:38:06;3.83;;;2.50;;
49544;SDS011;74870;42.636;23.302;2023-12-20T01:40:32;3.93;;;3.10;;
49544;SDS011;74870;42.636;23.302;2023-12-20T01:43:01;2.73;;;2.30;;
49544;SDS011;74870;42.636;23.302;2023-12-20T01:45:27;1.93;;;1.83;;
49544;SDS011;74870;42.636;23.302;2023-12-20T01:47:53;3.73;;;3.43;;
49544;SDS011;74870;42.636;23.302;2023-12-20T01:50:20;2.10;;;2.00;;
49544;SDS011;74870;42.636;23.302;2023-12-20T01:52:46;3.37;;;3.07;;
49544;SDS011;74870;42.636;23.302;2023-12-20T01:55:12;2.00;;;1.90;;
49544;SDS011;74870;42.636;23.302;2023-12-20T01:57:43;3.50;;;3.20;;
49544;SDS011;74870;42.636;23.302;2023-12-20T02:00:09;2.83;;;2.63;;
49544;SDS011;74870;42.636;23.302;2023-12-20T02:02:36;2.97;;;2.73;;
49544;SDS011;74870;42.636;23.302;2023-12-20T02:05:05;3.23;;;2.93;;
49544;SDS011;74870;42.636;23.302;2023-12-20T02:07:31;4.60;;;4.20;;
49544;SDS011;74870;42.636;23.302;2023-12-20T02:09:56;5.00;;;4.60;;
49544;SDS011;74870;42.636;23.302;2023-12-20T02:12:22;4.10;;;3.67;;
49544;SDS011;74870;42.636;23.302;2023-12-20T02:14:47;3.87;;;3.57;;
49544;SDS011;74870;42.636;23.302;2023-12-20T02:17:13;3.80;;;3.50;;
49544;SDS011;74870;42.636;23.302;2023-12-20T02:19:39;4.20;;;3.80;;
49544;SDS011;74870;42.636;23.302;2023-12-20T02:24:34;2.60;;;2.40;;
49544;SDS011;74870;42.636;23.302;2023-12-20T02:26:59;2.67;;;2.47;;
49544;SDS011;74870;42.636;23.302;2023-12-20T02:29:24;2.70;;;2.50;;
49544;SDS011;74870;42.636;23.302;2023-12-20T02:31:51;3.10;;;2.90;;
49544;SDS011;74870;42.636;23.302;2023-12-20T02:34:16;3.53;;;3.23;;
49544;SDS011;74870;42.636;23.302;2023-12-20T02:36:41;3.53;;;3.23;;
49544;SDS011;74870;42.636;23.302;2023-12-20T02:39:07;2.83;;;2.63;;
49544;SDS011;74870;42.636;23.302;2023-12-20T02:41:32;2.60;;;2.50;;
49544;SDS011;74870;42.636;23.302;2023-12-20T02:43:57;4.03;;;3.63;;
49544;SDS011;74870;42.636;23.302;2023-12-20T02:46:23;3.00;;;2.80;;
49544;SDS011;74870;42.636;23.302;2023-12-20T02:48:48;2.80;;;2.60;;
49544;SDS011;74870;42.636;23.302;2023-12-20T02:51:13;3.57;;;3.27;;
49544;SDS011;74870;42.636;23.302;2023-12-20T02:53:39;3.57;;;3.27;;
49544;SDS011;74870;42.636;23.302;2023-12-20T02:56:04;2.90;;;2.70;;
49544;SDS011;74870;42.636;23.302;2023-12-20T02:58:30;2.87;;;2.67;;
49544;SDS011;74870;42.636;23.302;2023-12-20T03:00:55;3.10;;;2.80;;
49544;SDS011;74870;42.636;23.302;2023-12-20T03:03:20;4.60;;;4.10;;
49544;SDS011;74870;42.636;23.302;2023-12-20T03:05:46;6.93;;;5.93;;
49544;SDS011;74870;42.636;23.302;2023-12-20T03:08:11;3.37;;;3.07;;
49544;SDS011;74870;42.636;23.302;2023-12-20T03:10:37;3.50;;;3.17;;
49544;SDS011;74870;42.636;23.302;2023-12-20T03:13:02;2.87;;;2.67;;
49544;SDS011;74870;42.636;23.302;2023-12-20T03:15:28;4.50;;;4.10;;
49544;SDS011;74870;42.636;23.302;2023-12-20T03:17:53;4.57;;;4.17;;
49544;SDS011;74870;42.636;23.302;2023-12-20T03:20:18;3.53;;;3.20;;
49544;SDS011;74870;42.636;23.302;2023-12-20T03:22:44;3.60;;;3.30;;
49544;SDS011;74870;42.636;23.302;2023-12-20T03:25:09;3.13;;;2.87;;
49544;SDS011;74870;42.636;23.302;2023-12-20T03:27:36;4.10;;;3.77;;
49544;SDS011;74870;42.636;23.302;2023-12-20T03:30:04;5.27;;;3.80;;
49544;SDS011;74870;42.636;23.302;2023-12-20T03:32:30;4.93;;;4.43;;
49544;SDS011;74870;42.636;23.302;2023-12-20T03:34:55;4.03;;;3.63;;
49544;SDS011;74870;42.636;23.302;2023-12-20T03:37:21;4.93;;;4.47;;
49544;SDS011;74870;42.636;23.302;2023-12-20T03:39:47;5.80;;;5.10;;
49544;SDS011;74870;42.636;23.302;2023-12-20T03:42:13;4.90;;;4.40;;
49544;SDS011;74870;42.636;23.302;2023-12-20T03:44:38;4.10;;;3.67;;
49544;SDS011;74870;42.636;23.302;2023-12-20T03:47:05;5.10;;;3.90;;
49544;SDS011;74870;42.636;23.302;2023-12-20T03:49:30;4.23;;;3.83;;
49544;SDS011;74870;42.636;23.302;2023-12-20T03:51:56;4.37;;;3.97;;
49544;SDS011;74870;42.636;23.302;2023-12-20T03:54:21;4.60;;;4.20;;
49544;SDS011;74870;42.636;23.302;2023-12-20T03:56:47;5.43;;;4.87;;
49544;SDS011;74870;42.636;23.302;2023-12-20T03:59:12;4.70;;;4.30;;
49544;SDS011;74870;42.636;23.302;2023-12-20T04:01:37;8.73;;;6.53;;
49544;SDS011;74870;42.636;23.302;2023-12-20T04:04:03;6.90;;;6.20;;
49544;SDS011;74870;42.636;23.302;2023-12-20T04:06:28;7.50;;;6.43;;
49544;SDS011;74870;42.636;23.302;2023-12-20T04:08:54;9.27;;;7.40;;
49544;SDS011;74870;42.636;23.302;2023-12-20T04:11:19;7.80;;;6.63;;
49544;SDS011;74870;42.636;23.302;2023-12-20T04:13:44;7.07;;;6.10;;
49544;SDS011;74870;42.636;23.302;2023-12-20T04:16:10;7.87;;;6.80;;
49544;SDS011;74870;42.636;23.302;2023-12-20T04:18:35;6.60;;;5.93;;
49544;SDS011;74870;42.636;23.302;2023-12-20T04:21:01;8.50;;;6.97;;
49544;SDS011;74870;42.636;23.302;2023-12-20T04:23:27;7.47;;;6.27;;
49544;SDS011;74870;42.636;23.302;2023-12-20T04:25:52;12.80;;;10.27;;
49544;SDS011;74870;42.636;23.302;2023-12-20T04:28:18;19.47;;;13.13;;
49544;SDS011;74870;42.636;23.302;2023-12-20T04:30:43;21.00;;;14.17;;
49544;SDS011;74870;42.636;23.302;2023-12-20T04:33:09;13.07;;;9.03;;
49544;SDS011;74870;42.636;23.302;2023-12-20T04:35:34;13.10;;;10.63;;
49544;SDS011;74870;42.636;23.302;2023-12-20T04:38:00;11.30;;;9.67;;
49544;SDS011;74870;42.636;23.302;2023-12-20T04:40:25;12.60;;;10.47;;
49544;SDS011;74870;42.636;23.302;2023-12-20T04:42:50;13.47;;;9.77;;
49544;SDS011;74870;42.636;23.302;2023-12-20T04:45:16;8.43;;;7.40;;
49544;SDS011;74870;42.636;23.302;2023-12-20T04:47:42;7.80;;;6.97;;
49544;SDS011;74870;42.636;23.302;2023-12-20T04:50:08;8.77;;;7.87;;
49544;SDS011;74870;42.636;23.302;2023-12-20T04:52:34;12.83;;;8.47;;
49544;SDS011;74870;42.636;23.302;2023-12-20T04:55:00;12.00;;;8.60;;
49544;SDS011;74870;42.636;23.302;2023-12-20T04:57:26;13.70;;;8.83;;
49544;SDS011;74870;42.636;23.302;2023-12-20T04:59:51;13.30;;;8.50;;
49544;SDS011;74870;42.636;23.302;2023-12-20T05:02:16;12.07;;;8.10;;
49544;SDS011;74870;42.636;23.302;2023-12-20T05:04:42;11.10;;;7.80;;
49544;SDS011;74870;42.636;23.302;2023-12-20T05:07:07;10.57;;;8.67;;
49544;SDS011;74870;42.636;23.302;2023-12-20T05:09:33;14.97;;;10.30;;
49544;SDS011;74870;42.636;23.302;2023-12-20T05:11:58;14.37;;;10.37;;
49544;SDS011;74870;42.636;23.302;2023-12-20T05:14:25;16.87;;;12.40;;
49544;SDS011;74870;42.636;23.302;2023-12-20T05:16:50;15.00;;;11.40;;
49544;SDS011;74870;42.636;23.302;2023-12-20T05:19:16;16.13;;;11.83;;
49544;SDS011;74870;42.636;23.302;2023-12-20T05:21:41;19.03;;;13.47;;
49544;SDS011;74870;42.636;23.302;2023-12-20T05:24:06;19.73;;;14.73;;
49544;SDS011;74870;42.636;23.302;2023-12-20T05:26:32;16.57;;;12.10;;
49544;SDS011;74870;42.636;23.302;2023-12-20T05:28:57;13.87;;;10.70;;
49544;SDS011;74870;42.636;23.302;2023-12-20T05:31:23;17.03;;;12.07;;
49544;SDS011;74870;42.636;23.302;2023-12-20T05:33:48;16.63;;;12.57;;
49544;SDS011;74870;42.636;23.302;2023-12-20T05:36:13;18.63;;;11.90;;
49544;SDS011;74870;42.636;23.302;2023-12-20T05:38:40;26.30;;;16.10;;
49544;SDS011;74870;42.636;23.302;2023-12-20T05:41:05;22.23;;;14.87;;
49544;SDS011;74870;42.636;23.302;2023-12-20T05:43:31;22.23;;;15.73;;
49544;SDS011;74870;42.636;23.302;2023-12-20T05:45:56;24.17;;;15.70;;
49544;SDS011;74870;42.636;23.302;2023-12-20T05:48:23;27.70;;;20.00;;
49544;SDS011;74870;42.636;23.302;2023-12-20T05:50:48;37.47;;;29.17;;
49544;SDS011;74870;42.636;23.302;2023-12-20T05:53:14;39.07;;;30.33;;
49544;SDS011;74870;42.636;23.302;2023-12-20T05:55:39;44.73;;;35.27;;
49544;SDS011;74870;42.636;23.302;2023-12-20T05:58:05;30.37;;;22.70;;
49544;SDS011;74870;42.636;23.302;2023-12-20T06:00:30;45.07;;;28.87;;
49544;SDS011;74870;42.636;23.302;2023-12-20T06:02:56;44.43;;;29.10;;
49544;SDS011;74870;42.636;23.302;2023-12-20T06:05:21;46.87;;;33.23;;
49544;SDS011;74870;42.636;23.302;2023-12-20T06:07:47;63.83;;;42.23;;
49544;SDS011;74870;42.636;23.302;2023-12-20T06:10:13;55.87;;;39.57;;
49544;SDS011;74870;42.636;23.302;2023-12-20T06:12:39;44.27;;;34.47;;
49544;SDS011;74870;42.636;23.302;2023-12-20T06:15:04;38.50;;;26.73;;
49544;SDS011;74870;42.636;23.302;2023-12-20T06:17:30;37.87;;;26.37;;
49544;SDS011;74870;42.636;23.302;2023-12-20T06:19:56;39.27;;;26.03;;
49544;SDS011;74870;42.636;23.302;2023-12-20T06:22:22;40.77;;;25.47;;
49544;SDS011;74870;42.636;23.302;2023-12-20T06:24:47;37.93;;;23.13;;
49544;SDS011;74870;42.636;23.302;2023-12-20T06:27:13;28.53;;;20.03;;
49544;SDS011;74870;42.636;23.302;2023-12-20T06:29:38;35.53;;;23.17;;
49544;SDS011;74870;42.636;23.302;2023-12-20T06:32:04;33.60;;;22.30;;
49544;SDS011;74870;42.636;23.302;2023-12-20T06:34:29;42.30;;;27.07;;
49544;SDS011;74870;42.636;23.302;2023-12-20T06:36:55;42.50;;;25.83;;
49544;SDS011;74870;42.636;23.302;2023-12-20T06:39:20;37.87;;;27.77;;
49544;SDS011;74870;42.636;23.302;2023-12-20T06:41:45;48.50;;;32.87;;
49544;SDS011;74870;42.636;23.302;2023-12-20T06:44:11;72.60;;;37.83;;
49544;SDS011;74870;42.636;23.302;2023-12-20T06:46:36;52.57;;;29.77;;
49544;SDS011;74870;42.636;23.302;2023-12-20T06:49:02;59.30;;;31.90;;
49544;SDS011;74870;42.636;23.302;2023-12-20T06:51:27;39.73;;;24.90;;
49544;SDS011;74870;42.636;23.302;2023-12-20T06:53:53;44.27;;;26.50;;
49544;SDS011;74870;42.636;23.302;2023-12-20T06:56:18;44.73;;;25.97;;
49544;SDS011;74870;42.636;23.302;2023-12-20T06:58:44;31.63;;;22.97;;
49544;SDS011;74870;42.636;23.302;2023-12-20T07:01:13;39.10;;;28.07;;
49544;SDS011;74870;42.636;23.302;2023-12-20T07:03:39;33.13;;;23.53;;
49544;SDS011;74870;42.636;23.302;2023-12-20T07:06:05;31.03;;;22.10;;
49544;SDS011;74870;42.636;23.302;2023-12-20T07:08:30;31.53;;;23.27;;
49544;SDS011;74870;42.636;23.302;2023-12-20T07:10:56;34.30;;;23.03;;
49544;SDS011;74870;42.636;23.302;2023-12-20T07:13:21;30.97;;;23.10;;
49544;SDS011;74870;42.636;23.302;2023-12-20T07:15:47;32.10;;;24.43;;
49544;SDS011;74870;42.636;23.302;2023-12-20T07:18:13;30.27;;;22.60;;
49544;SDS011;74870;42.636;23.302;2023-12-20T07:20:38;29.17;;;22.47;;
49544;SDS011;74870;42.636;23.302;2023-12-20T07:23:04;29.50;;;23.10;;
49544;SDS011;74870;42.636;23.302;2023-12-20T07:25:29;31.00;;;23.23;;
49544;SDS011;74870;42.636;23.302;2023-12-20T07:27:57;23.50;;;19.70;;
49544;SDS011;74870;42.636;23.302;2023-12-20T07:30:23;38.97;;;31.40;;
49544;SDS011;74870;42.636;23.302;2023-12-20T07:32:48;26.23;;;20.87;;
49544;SDS011;74870;42.636;23.302;2023-12-20T07:35:14;26.43;;;19.90;;
49544;SDS011;74870;42.636;23.302;2023-12-20T07:37:40;25.17;;;21.57;;
49544;SDS011;74870;42.636;23.302;2023-12-20T07:40:06;26.00;;;21.93;;
49544;SDS011;74870;42.636;23.302;2023-12-20T07:42:32;26.33;;;22.33;;
49544;SDS011;74870;42.636;23.302;2023-12-20T07:44:57;25.90;;;22.27;;
49544;SDS011;74870;42.636;23.302;2023-12-20T07:47:23;25.50;;;22.00;;
49544;SDS011;74870;42.636;23.302;2023-12-20T07:49:50;28.47;;;21.83;;
49544;SDS011;74870;42.636;23.302;2023-12-20T07:52:17;28.20;;;22.70;;
49544;SDS011;74870;42.636;23.302;2023-12-20T07:54:43;27.07;;;22.83;;
49544;SDS011;74870;42.636;23.302;2023-12-20T07:57:09;26.17;;;23.33;;
49544;SDS011;74870;42.636;23.302;2023-12-20T07:59:35;28.90;;;22.77;;
49544;SDS011;74870;42.636;23.302;2023-12-20T08:02:01;37.23;;;28.00;;
49544;SDS011;74870;42.636;23.302;2023-12-20T08:04:26;39.03;;;28.97;;
49544;SDS011;74870;42.636;23.302;2023-12-20T08:06:52;30.73;;;24.67;;
49544;SDS011;74870;42.636;23.302;2023-12-20T08:09:17;31.20;;;22.87;;
49544;SDS011;74870;42.636;23.302;2023-12-20T08:11:46;29.33;;;24.33;;
49544;SDS011;74870;42.636;23.302;2023-12-20T08:14:12;72.73;;;55.40;;
49544;SDS011;74870;42.636;23.302;2023-12-20T08:16:37;62.10;;;50.90;;
49544;SDS011;74870;42.636;23.302;2023-12-20T08:19:02;57.30;;;48.67;;
49544;SDS011;74870;42.636;23.302;2023-12-20T08:21:28;82.23;;;65.00;;
49544;SDS011;74870;42.636;23.302;2023-12-20T08:23:53;82.57;;;65.70;;
49544;SDS011;74870;42.636;23.302;2023-12-20T08:26:19;88.37;;;67.03;;
49544;SDS011;74870;42.636;23.302;2023-12-20T08:28:46;87.87;;;67.70;;
49544;SDS011;74870;42.636;23.302;2023-12-20T08:31:15;104.30;;;79.37;;
49544;SDS011;74870;42.636;23.302;2023-12-20T08:33:43;104.27;;;77.90;;
49544;SDS011;74870;42.636;23.302;2023-12-20T08:36:09;99.33;;;75.10;;
49544;SDS011;74870;42.636;23.302;2023-12-20T08:38:35;100.43;;;74.60;;
49544;SDS011;74870;42.636;23.302;2023-12-20T08:41:00;95.70;;;73.17;;
49544;SDS011;74870;42.636;23.302;2023-12-20T08:43:27;96.70;;;72.53;;
49544;SDS011;74870;42.636;23.302;2023-12-20T08:45:53;102.17;;;73.80;;
49544;SDS011;74870;42.636;23.302;2023-12-20T08:48:19;100.93;;;73.50;;
49544;SDS011;74870;42.636;23.302;2023-12-20T08:50:44;97.47;;;73.97;;
49544;SDS011;74870;42.636;23.302;2023-12-20T08:53:10;98.73;;;73.43;;
49544;SDS011;74870;42.636;23.302;2023-12-20T08:55:36;110.40;;;82.47;;
49544;SDS011;74870;42.636;23.302;2023-12-20T08:58:02;95.87;;;72.37;;
49544;SDS011;74870;42.636;23.302;2023-12-20T09:00:27;105.90;;;77.03;;
49544;SDS011;74870;42.636;23.302;2023-12-20T09:02:53;100.43;;;76.40;;
49544;SDS011;74870;42.636;23.302;2023-12-20T09:05:19;221.93;;;168.97;;
49544;SDS011;74870;42.636;23.302;2023-12-20T09:07:45;119.57;;;89.87;;
49544;SDS011;74870;42.636;23.302;2023-12-20T09:10:10;99.93;;;77.60;;
49544;SDS011;74870;42.636;23.302;2023-12-20T09:12:36;122.03;;;100.83;;
49544;SDS011;74870;42.636;23.302;2023-12-20T09:15:05;97.10;;;75.20;;
49544;SDS011;74870;42.636;23.302;2023-12-20T09:17:30;100.30;;;77.03;;
49544;SDS011;74870;42.636;23.302;2023-12-20T09:19:56;106.17;;;80.70;;
49544;SDS011;74870;42.636;23.302;2023-12-20T09:22:21;114.43;;;87.63;;
49544;SDS011;74870;42.636;23.302;2023-12-20T09:24:47;106.40;;;82.13;;
49544;SDS011;74870;42.636;23.302;2023-12-20T09:27:12;109.97;;;82.07;;
49544;SDS011;74870;42.636;23.302;2023-12-20T09:29:38;113.50;;;83.77;;
49544;SDS011;74870;42.636;23.302;2023-12-20T09:32:03;110.97;;;82.17;;
49544;SDS011;74870;42.636;23.302;2023-12-20T09:34:29;101.87;;;77.63;;
49544;SDS011;74870;42.636;23.302;2023-12-20T09:36:54;104.90;;;85.20;;
49544;SDS011;74870;42.636;23.302;2023-12-20T09:39:20;99.13;;;76.27;;
49544;SDS011;74870;42.636;23.302;2023-12-20T09:42:05;98.47;;;74.43;;
49544;SDS011;74870;42.636;23.302;2023-12-20T09:44:31;93.53;;;70.03;;
49544;SDS011;74870;42.636;23.302;2023-12-20T09:47:03;95.63;;;70.20;;
49544;SDS011;74870;42.636;23.302;2023-12-20T09:49:31;97.60;;;71.87;;
49544;SDS011;74870;42.636;23.302;2023-12-20T09:51:58;99.30;;;72.73;;
49544;SDS011;74870;42.636;23.302;2023-12-20T09:54:25;103.73;;;74.47;;
49544;SDS011;74870;42.636;23.302;2023-12-20T09:56:51;85.30;;;68.73;;
49544;SDS011;74870;42.636;23.302;2023-12-20T09:59:17;91.87;;;71.47;;
49544;SDS011;74870;42.636;23.302;2023-12-20T10:01:43;89.37;;;69.43;;
49544;SDS011;74870;42.636;23.302;2023-12-20T10:04:09;85.70;;;65.87;;
49544;SDS011;74870;42.636;23.302;2023-12-20T10:06:37;83.30;;;66.63;;
49544;SDS011;74870;42.636;23.302;2023-12-20T10:09:09;80.87;;;62.77;;
49544;SDS011;74870;42.636;23.302;2023-12-20T10:11:36;82.33;;;64.57;;
49544;SDS011;74870;42.636;23.302;2023-12-20T10:14:02;77.77;;;61.20;;
49544;SDS011;74870;42.636;23.302;2023-12-20T10:16:28;79.10;;;60.37;;
49544;SDS011;74870;42.636;23.302;2023-12-20T10:18:55;78.67;;;58.83;;
49544;SDS011;74870;42.636;23.302;2023-12-20T10:21:24;79.47;;;60.73;;
49544;SDS011;74870;42.636;23.302;2023-12-20T10:23:53;81.93;;;61.47;;
49544;SDS011;74870;42.636;23.302;2023-12-20T10:26:20;74.73;;;58.33;;
49544;SDS011;74870;42.636;23.302;2023-12-20T10:28:46;77.67;;;59.23;;
49544;SDS011;74870;42.636;23.302;2023-12-20T10:33:53;82.43;;;61.47;;
49544;SDS011;74870;42.636;23.302;2023-12-20T10:36:20;83.13;;;64.93;;
49544;SDS011;74870;42.636;23.302;2023-12-20T10:38:46;95.43;;;76.30;;
49544;SDS011;74870;42.636;23.302;2023-12-20T10:41:15;80.00;;;62.77;;
49544;SDS011;74870;42.636;23.302;2023-12-20T10:44:00;80.53;;;61.33;;
49544;SDS011;74870;42.636;23.302;2023-12-20T10:46:32;77.77;;;59.87;;
49544;SDS011;74870;42.636;23.302;2023-12-20T10:48:59;83.30;;;60.63;;
49544;SDS011;74870;42.636;23.302;2023-12-20T10:51:27;83.90;;;65.47;;
49544;SDS011;74870;42.636;23.302;2023-12-20T10:53:55;86.47;;;64.13;;
49544;SDS011;74870;42.636;23.302;2023-12-20T10:56:21;88.67;;;69.53;;
49544;SDS011;74870;42.636;23.302;2023-12-20T11:19:38;85.20;;;68.97;;
49544;SDS011;74870;42.636;23.302;2023-12-20T11:22:32;96.40;;;68.97;;
49544;SDS011;74870;42.636;23.302;2023-12-20T11:25:09;87.47;;;68.23;;
49544;SDS011;74870;42.636;23.302;2023-12-20T11:27:35;87.50;;;66.63;;
49544;SDS011;74870;42.636;23.302;2023-12-20T11:30:05;88.20;;;63.97;;
49544;SDS011;74870;42.636;23.302;2023-12-20T11:32:31;88.00;;;62.80;;
49544;SDS011;74870;42.636;23.302;2023-12-20T11:35:00;87.57;;;63.17;;
49544;SDS011;74870;42.636;23.302;2023-12-20T11:37:35;84.37;;;61.03;;
49544;SDS011;74870;42.636;23.302;2023-12-20T11:40:03;82.20;;;61.83;;
49544;SDS011;74870;42.636;23.302;2023-12-20T11:42:37;92.23;;;62.97;;
49544;SDS011;74870;42.636;23.302;2023-12-20T11:45:04;80.73;;;56.43;;
49544;SDS011;74870;42.636;23.302;2023-12-20T11:47:30;79.67;;;57.67;;
49544;SDS011;74870;42.636;23.302;2023-12-20T11:49:56;79.43;;;55.53;;
49544;SDS011;74870;42.636;23.302;2023-12-20T11:52:22;80.13;;;56.57;;
49544;SDS011;74870;42.636;23.302;2023-12-20T11:54:47;79.50;;;55.77;;
49544;SDS011;74870;42.636;23.302;2023-12-20T11:57:13;78.47;;;55.47;;
49544;SDS011;74870;42.636;23.302;2023-12-20T11:59:38;80.03;;;55.87;;
49544;SDS011;74870;42.636;23.302;2023-12-20T12:02:04;78.90;;;55.70;;
49544;SDS011;74870;42.636;23.302;2023-12-20T12:04:29;84.97;;;57.13;;
49544;SDS011;74870;42.636;23.302;2023-12-20T12:06:55;92.53;;;63.97;;
49544;SDS011;74870;42.636;23.302;2023-12-20T12:09:20;84.00;;;62.40;;
49544;SDS011;74870;42.636;23.302;2023-12-20T12:11:46;86.23;;;60.47;;
49544;SDS011;74870;42.636;23.302;2023-12-20T12:14:11;82.97;;;56.60;;
49544;SDS011;74870;42.636;23.302;2023-12-20T12:16:37;81.70;;;59.73;;
49544;SDS011;74870;42.636;23.302;2023-12-20T12:19:02;89.03;;;62.33;;
49544;SDS011;74870;42.636;23.302;2023-12-20T12:21:29;93.53;;;64.50;;
49544;SDS011;74870;42.636;23.302;2023-12-20T12:23:54;87.30;;;66.37;;
49544;SDS011;74870;42.636;23.302;2023-12-20T12:26:31;79.37;;;57.30;;
49544;SDS011;74870;42.636;23.302;2023-12-20T12:28:57;80.27;;;60.03;;
49544;SDS011;74870;42.636;23.302;2023-12-20T12:31:22;100.23;;;70.03;;
49544;SDS011;74870;42.636;23.302;2023-12-20T12:33:50;91.80;;;68.10;;
49544;SDS011;74870;42.636;23.302;2023-12-20T12:36:16;82.60;;;58.50;;
49544;SDS011;74870;42.636;23.302;2023-12-20T12:38:42;80.50;;;59.67;;
49544;SDS011;74870;42.636;23.302;2023-12-20T12:41:08;69.47;;;51.43;;
49544;SDS011;74870;42.636;23.302;2023-12-20T12:43:35;59.40;;;46.10;;
49544;SDS011;74870;42.636;23.302;2023-12-20T12:46:00;77.37;;;54.77;;
49544;SDS011;74870;42.636;23.302;2023-12-20T12:48:26;86.27;;;55.83;;
49544;SDS011;74870;42.636;23.302;2023-12-20T12:50:53;75.60;;;54.10;;
49544;SDS011;74870;42.636;23.302;2023-12-20T12:53:19;88.13;;;59.87;;
49544;SDS011;74870;42.636;23.302;2023-12-20T12:55:44;76.30;;;55.63;;
49544;SDS011;74870;42.636;23.302;2023-12-20T12:58:11;78.53;;;55.43;;
49544;SDS011;74870;42.636;23.302;2023-12-20T13:00:36;80.53;;;55.13;;
49544;SDS011;74870;42.636;23.302;2023-12-20T13:03:02;81.13;;;54.80;;
49544;SDS011;74870;42.636;23.302;2023-12-20T13:05:27;84.20;;;56.97;;
49544;SDS011;74870;42.636;23.302;2023-12-20T13:07:53;80.67;;;55.13;;
49544;SDS011;74870;42.636;23.302;2023-12-20T13:10:18;93.43;;;59.60;;
49544;SDS011;74870;42.636;23.302;2023-12-20T13:12:43;79.57;;;56.47;;
49544;SDS011;74870;42.636;23.302;2023-12-20T13:15:09;91.47;;;62.17;;
49544;SDS011;74870;42.636;23.302;2023-12-20T13:17:34;87.23;;;59.53;;
49544;SDS011;74870;42.636;23.302;2023-12-20T13:20:00;96.33;;;63.33;;
49544;SDS011;74870;42.636;23.302;2023-12-20T13:42:19;90.73;;;61.97;;
49544;SDS011;74870;42.636;23.302;2023-12-20T13:44:45;82.03;;;60.13;;
49544;SDS011;74870;42.636;23.302;2023-12-20T13:47:11;96.33;;;67.07;;
49544;SDS011;74870;42.636;23.302;2023-12-20T13:49:37;90.53;;;62.37;;
49544;SDS011;74870;42.636;23.302;2023-12-20T13:52:03;99.60;;;63.43;;
49544;SDS011;74870;42.636;23.302;2023-12-20T13:54:29;89.23;;;61.73;;
49544;SDS011;74870;42.636;23.302;2023-12-20T13:56:55;96.60;;;64.20;;
49544;SDS011;74870;42.636;23.302;2023-12-20T13:59:20;96.30;;;64.23;;
49544;SDS011;74870;42.636;23.302;2023-12-20T14:01:45;103.13;;;69.00;;
49544;SDS011;74870;42.636;23.302;2023-12-20T14:04:11;106.20;;;74.30;;
49544;SDS011;74870;42.636;23.302;2023-12-20T14:06:36;100.80;;;69.03;;
49544;SDS011;74870;42.636;23.302;2023-12-20T14:09:02;87.10;;;63.23;;
49544;SDS011;74870;42.636;23.302;2023-12-20T14:31:10;78.90;;;54.10;;
49544;SDS011;74870;42.636;23.302;2023-12-20T14:33:36;64.17;;;47.60;;
49544;SDS011;74870;42.636;23.302;2023-12-20T14:36:03;28.63;;;21.23;;
49544;SDS011;74870;42.636;23.302;2023-12-20T14:38:30;29.37;;;24.80;;
49544;SDS011;74870;42.636;23.302;2023-12-20T14:40:58;80.27;;;54.00;;
49544;SDS011;74870;42.636;23.302;2023-12-20T14:43:25;76.97;;;51.03;;
49544;SDS011;74870;42.636;23.302;2023-12-20T14:45:51;93.20;;;74.63;;
49544;SDS011;74870;42.636;23.302;2023-12-20T14:48:17;29.37;;;21.33;;
49544;SDS011;74870;42.636;23.302;2023-12-20T14:50:43;113.67;;;61.50;;
49544;SDS011;74870;42.636;23.302;2023-12-20T14:53:09;24.87;;;17.93;;
49544;SDS011;74870;42.636;23.302;2023-12-20T14:55:34;91.77;;;60.53;;
49544;SDS011;74870;42.636;23.302;2023-12-20T14:58:00;102.07;;;65.10;;
49544;SDS011;74870;42.636;23.302;2023-12-20T15:00:26;108.27;;;65.87;;
49544;SDS011;74870;42.636;23.302;2023-12-20T15:02:51;107.87;;;68.33;;
49544;SDS011;74870;42.636;23.302;2023-12-20T15:05:19;106.90;;;65.53;;
49544;SDS011;74870;42.636;23.302;2023-12-20T15:07:44;116.97;;;70.77;;
49544;SDS011;74870;42.636;23.302;2023-12-20T15:10:11;103.53;;;66.23;;
49544;SDS011;74870;42.636;23.302;2023-12-20T15:12:37;67.13;;;42.40;;
49544;SDS011;74870;42.636;23.302;2023-12-20T15:15:02;76.20;;;50.37;;